createdAt,value
2018-11-04T00:00:23.676Z,13.85
2018-11-04T00:02:25.919Z,13.58
2018-11-04T00:04:28.219Z,14.87
2018-11-04T00:06:30.632Z,14.35
2018-11-04T00:08:32.866Z,14.20
2018-11-04T00:10:35.139Z,15.38
2018-11-04T00:12:38.633Z,14.00
2018-11-04T00:14:40.811Z,13.85
2018-11-04T00:16:43.178Z,14.53
2018-11-04T00:18:45.362Z,13.60
2018-11-04T00:20:47.561Z,14.07
2018-11-04T00:22:50.021Z,14.10
2018-11-04T00:24:52.355Z,13.88
2018-11-04T00:26:54.564Z,14.70
2018-11-04T00:28:56.784Z,14.87
2018-11-04T00:30:58.998Z,14.50
2018-11-04T00:33:01.250Z,15.00
2018-11-04T00:35:04.241Z,14.00
2018-11-04T00:37:06.985Z,13.85
2018-11-04T00:39:09.262Z,12.85
2018-11-04T00:41:11.834Z,13.62
2018-11-04T00:43:14.030Z,13.40
2018-11-04T00:45:16.345Z,13.58
2018-11-04T00:47:18.706Z,12.95
2018-11-04T00:49:21.575Z,13.20
2018-11-04T00:51:23.791Z,12.25
2018-11-04T00:53:25.985Z,12.75
2018-11-04T00:55:28.232Z,13.95
2018-11-04T00:57:30.374Z,13.43
2018-11-04T00:59:32.700Z,14.73
2018-11-04T01:01:35.086Z,12.63
2018-11-04T01:03:37.233Z,12.68
2018-11-04T01:05:39.455Z,12.60
2018-11-04T01:07:41.970Z,13.00
2018-11-04T01:09:44.164Z,12.37
2018-11-04T01:11:46.401Z,12.78
2018-11-04T01:13:48.850Z,13.70
2018-11-04T01:15:51.223Z,14.23
2018-11-04T01:17:53.426Z,12.85
2018-11-04T01:19:55.729Z,12.43
2018-11-04T01:21:58.112Z,13.18
2018-11-04T01:24:00.762Z,13.32
2018-11-04T01:26:03.052Z,13.28
2018-11-04T01:28:05.335Z,12.93
2018-11-04T01:30:08.571Z,13.88
2018-11-04T01:32:10.747Z,15.93
2018-11-04T01:34:13.126Z,12.88
2018-11-04T01:36:15.352Z,13.20
2018-11-04T01:38:17.558Z,16.27
2018-11-04T01:40:19.847Z,14.80
2018-11-04T01:42:22.466Z,14.30
2018-11-04T01:44:24.722Z,14.45
2018-11-04T01:46:26.939Z,13.83
2018-11-04T01:48:29.783Z,13.43
2018-11-04T01:50:31.992Z,14.10
2018-11-04T01:52:34.166Z,13.10
2018-11-04T01:54:36.680Z,13.72
2018-11-04T01:56:38.923Z,13.13
2018-11-04T01:58:41.134Z,12.73
2018-11-04T02:00:43.493Z,13.38
2018-11-04T02:02:46.643Z,13.70
2018-11-04T02:04:48.937Z,12.70
2018-11-04T02:06:51.674Z,12.93
2018-11-04T02:08:53.898Z,13.75
2018-11-04T02:10:56.070Z,13.32
2018-11-04T02:12:58.449Z,14.40
2018-11-04T02:15:00.663Z,14.07
2018-11-04T02:17:02.874Z,14.23
2018-11-04T02:19:05.184Z,14.00
2018-11-04T02:21:07.430Z,14.18
2018-11-04T02:23:09.614Z,14.43
2018-11-04T02:25:12.828Z,14.65
2018-11-04T02:27:15.034Z,14.45
2018-11-04T02:29:17.406Z,13.15
2018-11-04T02:31:19.717Z,13.83
2018-11-04T02:33:21.900Z,14.18
2018-11-04T02:35:24.055Z,12.95
2018-11-04T02:37:26.248Z,13.90
2018-11-04T02:39:28.460Z,13.70
2018-11-04T02:41:30.732Z,13.85
2018-11-04T02:43:33.000Z,12.45
2018-11-04T02:45:35.315Z,12.20
2018-11-04T02:47:37.682Z,12.75
2018-11-04T02:49:39.878Z,11.60
2018-11-04T02:51:42.119Z,13.32
2018-11-04T02:53:44.315Z,12.63
2018-11-04T02:55:46.487Z,12.90
2018-11-04T02:57:48.902Z,12.65
2018-11-04T02:59:51.185Z,12.70
2018-11-04T03:01:53.393Z,14.45
2018-11-04T03:03:55.686Z,12.13
2018-11-04T03:05:57.921Z,14.03
2018-11-04T03:08:00.170Z,12.95
2018-11-04T03:10:02.464Z,14.28
2018-11-04T03:12:04.710Z,13.65
2018-11-04T03:14:07.150Z,13.32
2018-11-04T03:16:15.407Z,12.00
2018-11-04T03:18:17.640Z,13.18
2018-11-04T03:20:19.900Z,13.05
2018-11-04T03:22:22.132Z,12.75
2018-11-04T03:24:24.367Z,13.48
2018-11-04T03:26:27.139Z,11.85
2018-11-04T03:28:29.618Z,12.85
2018-11-04T03:30:31.793Z,13.15
2018-11-04T03:32:34.596Z,13.13
2018-11-04T03:34:36.902Z,12.40
2018-11-04T03:36:39.070Z,13.05
2018-11-04T03:38:41.578Z,14.75
2018-11-04T03:40:43.795Z,13.30
2018-11-04T03:42:45.973Z,13.40
2018-11-04T03:44:48.468Z,14.50
2018-11-04T03:46:50.680Z,13.80
2018-11-04T03:48:52.875Z,12.30
2018-11-04T03:50:55.304Z,14.00
2018-11-04T03:53:03.095Z,13.90
2018-11-04T03:55:05.546Z,13.35
2018-11-04T03:57:07.791Z,13.00
2018-11-04T03:59:10.020Z,12.82
2018-11-04T04:01:12.243Z,12.73
2018-11-04T04:03:14.514Z,12.88
2018-11-04T04:05:16.710Z,13.20
2018-11-04T04:07:18.887Z,14.13
2018-11-04T04:09:21.729Z,13.85
2018-11-04T04:11:23.961Z,16.05
2018-11-04T04:13:26.203Z,14.30
2018-11-04T04:15:28.704Z,13.32
2018-11-04T04:17:30.972Z,13.58
2018-11-04T04:19:33.177Z,13.35
2018-11-04T04:21:36.195Z,12.98
2018-11-04T04:23:39.582Z,13.95
2018-11-04T04:25:41.792Z,13.20
2018-11-04T04:27:44.018Z,13.48
2018-11-04T04:29:46.355Z,13.50
2018-11-04T04:31:48.535Z,15.48
2018-11-04T04:33:50.885Z,12.88
2018-11-04T04:35:53.127Z,12.90
2018-11-04T04:37:55.361Z,12.60
2018-11-04T04:39:57.792Z,12.95
2018-11-04T04:42:00.007Z,14.03
2018-11-04T04:44:02.217Z,13.30
2018-11-04T04:46:04.710Z,14.07
2018-11-04T04:48:06.912Z,13.60
2018-11-04T04:50:09.186Z,13.43
2018-11-04T04:52:11.488Z,13.85
2018-11-04T04:54:13.665Z,14.18
2018-11-04T04:56:16.046Z,14.23
2018-11-04T04:58:18.304Z,14.30
2018-11-04T05:00:20.501Z,13.30
2018-11-04T05:02:22.749Z,12.70
2018-11-04T05:04:25.331Z,13.68
2018-11-04T05:06:27.650Z,13.83
2018-11-04T05:08:29.855Z,13.05
2018-11-04T05:10:32.083Z,14.53
2018-11-04T05:12:34.628Z,14.00
2018-11-04T05:14:36.842Z,13.93
2018-11-04T05:16:39.061Z,12.90
2018-11-04T05:18:41.414Z,14.45
2018-11-04T05:20:43.585Z,14.53
2018-11-04T05:22:45.947Z,14.10
2018-11-04T05:24:48.101Z,13.70
2018-11-04T05:26:50.375Z,15.10
2018-11-04T05:28:52.708Z,15.32
2018-11-04T05:30:55.033Z,13.28
2018-11-04T05:32:57.359Z,13.88
2018-11-04T05:35:00.022Z,14.55
2018-11-04T05:37:02.210Z,13.60
2018-11-04T05:39:05.826Z,14.50
2018-11-04T05:41:08.062Z,13.90
2018-11-04T05:43:10.263Z,14.25
2018-11-04T05:45:12.726Z,15.50
2018-11-04T05:47:15.019Z,15.72
2018-11-04T05:49:17.230Z,14.98
2018-11-04T05:51:19.456Z,14.47
2018-11-04T05:53:21.707Z,15.60
2018-11-04T05:55:23.963Z,14.53
2018-11-04T05:57:26.732Z,15.83
2018-11-04T05:59:28.970Z,15.10
2018-11-04T06:01:31.737Z,15.70
2018-11-04T06:03:33.940Z,13.80
2018-11-04T06:05:36.199Z,15.53
2018-11-04T06:07:38.543Z,14.50
2018-11-04T06:09:41.087Z,14.20
2018-11-04T06:11:43.257Z,14.10
2018-11-04T06:13:45.451Z,16.02
2018-11-04T06:15:47.818Z,15.13
2018-11-04T06:17:50.114Z,15.13
2018-11-04T06:19:52.375Z,15.75
2018-11-04T06:21:54.868Z,15.83
2018-11-04T06:23:57.228Z,15.83
2018-11-04T06:25:59.457Z,16.40
2018-11-04T06:28:01.864Z,15.43
2018-11-04T06:30:05.265Z,16.52
2018-11-04T06:32:07.666Z,15.10
2018-11-04T06:34:09.933Z,16.12
2018-11-04T06:36:12.147Z,15.60
2018-11-04T06:38:14.382Z,17.07
2018-11-04T06:40:16.647Z,16.07
2018-11-04T06:42:19.186Z,15.32
2018-11-04T06:44:21.379Z,17.10
2018-11-04T06:46:23.606Z,16.48
2018-11-04T06:48:26.207Z,16.02
2018-11-04T06:50:28.510Z,16.85
2018-11-04T06:52:30.748Z,15.93
2018-11-04T06:54:33.167Z,15.78
2018-11-04T06:56:35.970Z,15.98
2018-11-04T06:58:38.194Z,17.25
2018-11-04T07:00:40.451Z,16.32
2018-11-04T07:02:42.641Z,17.40
2018-11-04T07:04:45.061Z,15.20
2018-11-04T07:06:47.913Z,17.12
2018-11-04T07:08:50.191Z,15.55
2018-11-04T07:10:52.346Z,17.00
2018-11-04T07:12:54.866Z,15.72
2018-11-04T07:14:57.214Z,17.40
2018-11-04T07:16:59.394Z,17.65
2018-11-04T07:19:01.794Z,17.92
2018-11-04T07:21:04.545Z,16.65
2018-11-04T07:23:06.787Z,17.02
2018-11-04T07:25:09.034Z,17.67
2018-11-04T07:27:11.280Z,17.37
2018-11-04T07:29:13.524Z,15.85
2018-11-04T07:31:16.103Z,17.35
2018-11-04T07:33:18.438Z,16.95
2018-11-04T07:35:21.315Z,16.02
2018-11-04T07:37:23.730Z,16.93
2018-11-04T07:39:25.959Z,17.27
2018-11-04T07:41:28.131Z,16.55
2018-11-04T07:43:30.571Z,17.23
2018-11-04T07:45:32.823Z,16.73
2018-11-04T07:47:35.014Z,17.05
2018-11-04T07:49:37.406Z,16.42
2018-11-04T07:51:40.762Z,17.70
2018-11-04T07:53:43.363Z,17.05
2018-11-04T07:55:45.830Z,18.60
2018-11-04T07:57:48.083Z,17.35
2018-11-04T07:59:50.303Z,17.57
2018-11-04T08:01:52.475Z,18.75
2018-11-04T08:03:55.042Z,19.57
2018-11-04T08:05:58.074Z,19.60
2018-11-04T08:08:00.411Z,21.00
2018-11-04T08:10:02.845Z,20.48
2018-11-04T08:12:05.121Z,22.32
2018-11-04T08:14:07.354Z,22.02
2018-11-04T08:16:09.718Z,21.90
2018-11-04T08:18:11.942Z,23.15
2018-11-04T08:20:14.499Z,21.00
2018-11-04T08:22:16.710Z,22.73
2018-11-04T08:24:19.019Z,23.47
2018-11-04T08:26:21.307Z,25.37
2018-11-04T08:28:23.502Z,23.18
2018-11-04T08:30:25.670Z,24.87
2018-11-04T08:32:27.876Z,25.92
2018-11-04T08:34:30.054Z,26.75
2018-11-04T08:36:32.252Z,26.12
2018-11-04T08:38:34.467Z,26.65
2018-11-04T08:40:36.642Z,26.57
2018-11-04T08:42:38.827Z,24.80
2018-11-04T08:44:41.063Z,28.12
2018-11-04T08:46:43.267Z,26.50
2018-11-04T08:48:45.462Z,28.40
2018-11-04T08:50:48.101Z,25.32
2018-11-04T08:52:52.570Z,26.48
2018-11-04T08:54:54.796Z,26.45
2018-11-04T08:56:57.234Z,27.13
2018-11-04T08:58:59.459Z,30.75
2018-11-04T09:01:01.614Z,24.95
2018-11-04T09:03:04.527Z,27.27
2018-11-04T09:05:13.367Z,26.00
2018-11-04T09:07:17.489Z,25.82
2018-11-04T09:09:19.692Z,25.27
2018-11-04T09:11:21.886Z,25.75
2018-11-04T09:13:24.070Z,25.62
2018-11-04T09:15:26.235Z,26.02
2018-11-04T09:17:28.398Z,25.35
2018-11-04T09:19:30.564Z,26.45
2018-11-04T09:21:32.790Z,25.75
2018-11-04T09:23:35.345Z,27.25
2018-11-04T09:25:37.470Z,26.73
2018-11-04T09:27:39.651Z,27.35
2018-11-04T09:29:41.871Z,26.12
2018-11-04T09:31:44.070Z,24.72
2018-11-04T09:33:46.264Z,26.25
2018-11-04T09:35:48.762Z,26.80
2018-11-04T09:37:50.770Z,28.02
2018-11-04T09:39:52.960Z,28.00
2018-11-04T09:41:55.143Z,28.40
2018-11-04T09:43:57.355Z,29.50
2018-11-04T09:45:59.715Z,29.80
2018-11-04T09:48:02.553Z,30.70
2018-11-04T09:50:05.761Z,30.25
2018-11-04T09:52:07.941Z,27.62
2018-11-04T09:54:10.107Z,27.55
2018-11-04T09:56:12.278Z,28.55
2018-11-04T09:58:14.592Z,28.92
2018-11-04T10:00:16.754Z,29.48
2018-11-04T10:02:19.035Z,27.10
2018-11-04T10:04:21.229Z,28.83
2018-11-04T10:06:24.675Z,27.62
2018-11-04T10:08:26.990Z,31.45
2018-11-04T10:10:29.257Z,31.65
2018-11-04T10:12:31.549Z,30.02
2018-11-04T10:14:33.820Z,27.82
2018-11-04T10:16:36.474Z,29.45
2018-11-04T10:18:39.180Z,30.02
2018-11-04T10:20:41.756Z,28.10
2018-11-04T10:22:43.590Z,29.42
2018-11-04T10:24:45.849Z,29.55
2018-11-04T10:26:48.262Z,27.60
2018-11-04T10:28:50.531Z,28.25
2018-11-04T10:30:52.824Z,28.42
2018-11-04T10:32:55.077Z,27.65
2018-11-04T10:34:57.327Z,27.15
2018-11-04T10:38:02.774Z,29.23
2018-11-04T10:40:05.362Z,27.95
2018-11-04T10:42:07.652Z,28.00
2018-11-04T10:44:09.924Z,26.40
2018-11-04T10:46:12.149Z,26.47
2018-11-04T10:48:14.443Z,25.70
2018-11-04T10:50:16.825Z,27.67
2018-11-04T10:52:19.127Z,28.43
2018-11-04T10:54:21.395Z,25.53
2018-11-04T10:56:23.671Z,27.80
2018-11-04T10:58:25.899Z,27.97
2018-11-04T11:00:33.879Z,25.90
2018-11-04T11:02:36.144Z,28.50
2018-11-04T11:04:38.491Z,27.03
2018-11-04T11:17:17.638Z,25.97
2018-11-04T11:22:06.711Z,25.93
2018-11-04T11:24:09.352Z,25.10
2018-11-04T11:26:11.579Z,23.50
2018-11-04T11:28:13.800Z,26.37
2018-11-04T11:30:47.061Z,26.50
2018-11-04T11:35:36.631Z,24.57
2018-11-04T11:37:46.892Z,27.10
2018-11-04T11:40:05.720Z,26.17
2018-11-04T11:42:22.472Z,25.10
2018-11-04T11:50:46.287Z,25.37
2018-11-04T11:53:49.294Z,26.47
2018-11-04T11:56:01.243Z,23.70
2018-11-04T12:00:51.230Z,25.30
2018-11-04T12:05:25.904Z,25.80
2018-11-04T12:07:28.220Z,25.40
2018-11-04T12:09:30.642Z,26.43
2018-11-04T12:11:33.083Z,26.53
2018-11-04T12:13:36.645Z,25.30
2018-11-04T12:15:38.986Z,24.07
2018-11-04T12:17:41.540Z,25.97
2018-11-04T13:04:24.474Z,28.70
2018-11-04T13:06:28.656Z,27.40
2018-11-04T13:08:30.906Z,28.07
2018-11-04T13:10:33.077Z,28.67
2018-11-04T13:12:35.441Z,28.20
2018-11-04T13:14:37.837Z,30.27
2018-11-04T13:16:39.982Z,29.30
2018-11-04T13:18:42.144Z,28.30
2018-11-04T13:20:44.324Z,28.50
2018-11-04T13:22:46.474Z,28.33
2018-11-04T13:24:49.205Z,29.40
2018-11-04T13:26:51.440Z,28.07
2018-11-04T13:28:53.585Z,27.73
2018-11-04T13:30:55.746Z,30.27
2018-11-04T13:32:57.891Z,29.50
2018-11-04T13:35:00.058Z,28.67
2018-11-04T13:37:02.246Z,28.17
2018-11-04T13:39:05.902Z,27.60
2018-11-04T13:41:08.079Z,30.50
2018-11-04T13:43:10.266Z,28.47
2018-11-04T13:45:12.421Z,28.73
2018-11-04T13:47:15.927Z,27.30
2018-11-04T13:49:18.133Z,29.40
2018-11-04T13:51:20.293Z,28.00
2018-11-04T13:53:22.461Z,27.70
2018-11-04T13:55:24.599Z,28.00
2018-11-04T13:57:26.774Z,30.03
2018-11-04T13:59:28.924Z,27.20
2018-11-04T14:01:32.132Z,30.37
2018-11-04T14:03:35.237Z,27.37
2018-11-04T14:05:37.418Z,29.20
2018-11-04T14:07:40.238Z,30.20
2018-11-04T14:09:42.550Z,29.97
2018-11-04T14:11:44.696Z,28.80
2018-11-04T14:13:46.839Z,28.33
2018-11-04T14:15:49.038Z,27.70
2018-11-04T14:17:51.201Z,28.13
2018-11-04T14:19:53.345Z,29.33
2018-11-04T14:21:55.913Z,27.33
2018-11-04T14:23:58.220Z,28.20
2018-11-04T14:26:00.341Z,30.40
2018-11-04T14:28:03.058Z,25.37
2018-11-04T14:30:06.805Z,28.27
2018-11-04T14:32:09.063Z,28.80
2018-11-04T14:34:11.330Z,29.80
2018-11-04T14:36:13.547Z,27.93
2018-11-04T14:38:15.750Z,29.30
2018-11-04T14:40:17.981Z,27.87
2018-11-04T14:42:20.802Z,28.10
2018-11-04T14:44:23.007Z,29.33
2018-11-04T14:46:25.242Z,26.73
2018-11-04T14:48:27.495Z,30.67
2018-11-04T14:50:29.705Z,28.20
2018-11-04T14:52:31.935Z,27.70
2018-11-04T14:54:34.164Z,28.80
2018-11-04T14:56:36.426Z,28.50
2018-11-04T14:58:38.648Z,27.47
2018-11-04T15:00:40.847Z,28.13
2018-11-04T15:02:43.088Z,30.17
2018-11-04T15:04:45.326Z,28.37
2018-11-04T15:06:47.549Z,28.80
2018-11-04T15:08:50.031Z,30.97
2018-11-04T15:10:52.309Z,28.00
2018-11-04T15:12:54.456Z,28.83
2018-11-04T15:14:56.722Z,30.57
2018-11-04T15:16:58.988Z,32.37
2018-11-04T15:19:01.242Z,31.03
2018-11-04T15:21:03.485Z,30.63
2018-11-04T15:23:05.755Z,32.20
2018-11-04T15:25:07.984Z,30.63
2018-11-04T15:27:10.239Z,31.10
2018-11-04T15:29:12.451Z,31.23
2018-11-04T15:31:14.671Z,31.87
2018-11-04T15:33:16.903Z,30.10
2018-11-04T15:35:19.166Z,31.00
2018-11-04T15:37:21.394Z,31.83
2018-11-04T15:39:23.620Z,31.93
2018-11-04T15:41:25.851Z,33.30
2018-11-04T15:43:28.281Z,28.83
2018-11-04T15:45:30.495Z,29.30
2018-11-04T15:47:32.727Z,29.90
2018-11-04T15:49:35.004Z,29.70
2018-11-04T15:51:37.244Z,30.73
2018-11-04T15:53:39.562Z,31.00
2018-11-04T15:55:41.812Z,31.47
2018-11-04T15:57:44.079Z,29.03
2018-11-04T15:59:46.319Z,29.93
2018-11-04T16:01:48.590Z,28.50
2018-11-04T16:03:50.818Z,29.83
2018-11-04T16:05:53.155Z,31.60
2018-11-04T16:07:55.405Z,30.33
2018-11-04T16:10:08.542Z,30.57
2018-11-04T16:12:24.675Z,29.40
2018-11-04T16:14:27.114Z,30.17
2018-11-04T16:16:29.435Z,32.43
2018-11-04T16:18:31.903Z,30.20
2018-11-04T16:20:34.124Z,31.03
2018-11-04T16:22:36.884Z,30.37
2018-11-04T16:24:39.134Z,30.13
2018-11-04T16:26:41.366Z,29.50
2018-11-04T16:28:43.666Z,31.60
2018-11-04T16:30:46.143Z,30.77
2018-11-04T16:32:48.406Z,31.13
2018-11-04T16:34:50.758Z,32.43
2018-11-04T16:36:53.045Z,31.23
2018-11-04T16:38:55.399Z,29.00
2018-11-04T16:40:57.690Z,30.63
2018-11-04T16:43:00.054Z,31.67
2018-11-04T16:45:07.164Z,30.30
2018-11-04T16:47:09.403Z,31.10
2018-11-04T16:49:12.063Z,32.10
2018-11-04T16:51:14.496Z,31.03
2018-11-04T16:53:16.780Z,29.67
2018-11-04T16:55:19.081Z,31.33
2018-11-04T16:57:21.478Z,32.10
2018-11-04T16:59:24.649Z,33.60
2018-11-04T17:01:26.901Z,31.60
2018-11-04T17:03:29.187Z,32.07
2018-11-04T17:05:31.771Z,32.73
2018-11-04T17:07:33.872Z,31.17
2018-11-04T17:09:36.209Z,33.10
2018-11-04T17:11:47.855Z,32.98
2018-11-04T17:14:02.143Z,32.40
2018-11-04T17:16:14.113Z,30.50
2018-11-04T17:18:20.454Z,32.40
2018-11-04T17:20:25.440Z,32.13
2018-11-04T17:22:34.927Z,32.60
2018-11-04T17:24:38.526Z,32.87
2018-11-04T17:26:43.173Z,32.13
2018-11-04T17:28:47.182Z,33.90
2018-11-04T17:30:52.867Z,32.97
2018-11-04T17:33:05.616Z,32.90
2018-11-04T17:35:21.800Z,32.97
2018-11-04T17:37:24.193Z,33.40
2018-11-04T17:39:28.022Z,36.20
2018-11-04T17:41:33.433Z,37.10
2018-11-04T17:43:43.334Z,35.30
2018-11-04T17:48:28.496Z,37.60
2018-11-04T17:50:30.756Z,36.33
2018-11-04T17:52:52.015Z,37.37
2018-11-04T17:54:54.524Z,43.13
2018-11-04T17:56:56.946Z,35.70
2018-11-04T17:58:59.255Z,35.27
2018-11-04T18:01:01.621Z,35.50
2018-11-04T18:03:03.958Z,36.53
2018-11-04T18:05:06.635Z,38.40
2018-11-04T18:07:08.936Z,37.20
2018-11-04T18:09:11.277Z,36.43
2018-11-04T18:11:13.635Z,38.40
2018-11-04T18:15:43.991Z,37.43
2018-11-04T18:17:46.293Z,38.00
2018-11-04T18:19:48.644Z,38.07
2018-11-04T18:21:53.007Z,39.10
2018-11-04T18:23:55.334Z,36.10
2018-11-04T18:25:58.282Z,36.77
2018-11-04T18:28:00.941Z,37.17
2018-11-04T18:30:03.385Z,37.53
2018-11-04T18:32:06.175Z,37.80
2018-11-04T18:34:08.780Z,38.17
2018-11-04T18:36:11.154Z,41.23
2018-11-04T18:38:13.412Z,39.47
2018-11-04T18:40:19.116Z,38.17
2018-11-04T18:42:21.623Z,40.77
2018-11-04T18:44:26.084Z,40.47
2018-11-04T18:46:28.295Z,40.00
2018-11-04T18:48:30.926Z,41.30
2018-11-04T18:50:33.478Z,37.13
2018-11-04T18:52:41.212Z,42.00
2018-11-04T18:54:43.674Z,38.40
2018-11-04T18:56:52.905Z,42.80
2018-11-04T18:58:56.479Z,42.77
2018-11-04T19:00:59.026Z,40.27
2018-11-04T19:03:01.447Z,39.47
2018-11-04T19:05:04.555Z,40.50
2018-11-04T19:07:07.053Z,40.10
2018-11-04T19:09:09.903Z,42.30
2018-11-04T19:11:12.215Z,43.03
2018-11-04T19:13:14.464Z,39.27
2018-11-04T19:15:16.756Z,41.07
2018-11-04T19:17:19.130Z,40.00
2018-11-04T19:19:21.354Z,41.17
2018-11-04T19:21:23.686Z,39.03
2018-11-04T19:23:25.999Z,41.80
2018-11-04T19:25:28.334Z,40.80
2018-11-04T19:27:30.677Z,41.87
2018-11-04T19:29:33.042Z,42.10
2018-11-04T19:31:35.320Z,40.50
2018-11-04T19:33:37.636Z,43.87
2018-11-04T19:35:39.966Z,43.13
2018-11-04T19:58:31.957Z,38.23
2018-11-04T20:00:34.276Z,39.87
2018-11-04T20:02:42.314Z,39.60
2018-11-04T20:04:44.780Z,40.50
2018-11-04T20:07:06.200Z,41.87
2018-11-04T20:09:13.924Z,39.90
2018-11-04T20:11:17.568Z,41.93
2018-11-04T20:13:25.849Z,44.20
2018-11-04T20:15:37.960Z,41.23
2018-11-04T20:17:40.678Z,44.07
2018-11-04T20:19:48.821Z,41.07
2018-11-04T20:21:53.616Z,44.70
2018-11-04T20:23:56.018Z,42.77
2018-11-04T20:26:01.066Z,41.70
2018-11-04T20:32:01.190Z,41.93
2018-11-04T20:34:05.056Z,41.20
2018-11-04T20:36:07.204Z,42.60
2018-11-04T20:38:09.597Z,41.97
2018-11-04T20:40:20.502Z,45.30
2018-11-04T20:42:27.773Z,41.53
2018-11-04T20:44:30.498Z,42.97
2018-11-04T20:46:32.723Z,41.43
2018-11-04T20:48:40.543Z,43.27
2018-11-04T20:55:56.764Z,44.13
2018-11-04T20:57:59.469Z,41.97
2018-11-04T21:00:02.174Z,42.53
2018-11-04T21:02:08.045Z,40.97
2018-11-04T21:04:11.425Z,41.73
2018-11-04T21:06:13.807Z,40.50
2018-11-04T21:08:16.074Z,45.53
2018-11-04T21:10:18.363Z,41.67
2018-11-04T21:12:20.655Z,47.03
2018-11-04T21:14:24.154Z,42.37
2018-11-04T21:16:26.786Z,42.77
2018-11-04T21:18:29.002Z,43.10
2018-11-04T21:20:31.199Z,42.50
2018-11-04T21:22:33.583Z,43.17
2018-11-04T21:24:36.032Z,43.00
2018-11-04T21:26:38.263Z,41.60
2018-11-04T21:28:40.560Z,43.37
2018-11-04T21:30:42.736Z,43.90
2018-11-04T21:32:45.428Z,40.90
2018-11-04T21:34:47.658Z,43.40
2018-11-04T21:36:49.882Z,44.50
2018-11-04T21:38:52.148Z,44.90
2018-11-04T21:40:54.482Z,46.33
2018-11-04T21:42:56.789Z,44.67
2018-11-04T21:44:59.044Z,44.53
2018-11-04T21:47:01.335Z,42.17
2018-11-04T21:49:04.178Z,45.03
2018-11-04T21:51:06.522Z,48.87
2018-11-04T21:53:08.904Z,48.33
2018-11-04T21:55:12.191Z,47.50
2018-11-04T21:57:14.358Z,45.70
2018-11-04T21:59:16.589Z,49.97
2018-11-04T22:01:18.887Z,46.30
2018-11-04T22:03:21.647Z,47.90
2018-11-04T22:05:24.043Z,45.93
2018-11-04T22:07:26.332Z,48.73
2018-11-04T22:09:28.560Z,48.73
2018-11-04T22:11:30.779Z,46.90
2018-11-04T22:13:33.092Z,49.33
2018-11-04T22:15:35.274Z,49.50
2018-11-04T22:17:38.321Z,54.37
2018-11-04T22:19:40.563Z,50.37
2018-11-04T22:21:42.809Z,50.90
2018-11-04T22:23:45.159Z,51.73
2018-11-04T22:25:47.422Z,49.67
2018-11-04T22:27:49.663Z,53.27
2018-11-04T22:29:52.186Z,49.00
2018-11-04T22:31:55.004Z,50.30
2018-11-04T22:33:57.327Z,50.20
2018-11-04T22:35:59.539Z,50.40
2018-11-04T22:38:01.898Z,49.90
2018-11-04T22:40:04.844Z,49.67
2018-11-04T22:42:07.136Z,51.50
2018-11-04T22:44:09.409Z,49.57
2018-11-04T22:46:11.748Z,50.63
2018-11-04T22:48:14.023Z,47.87
2018-11-04T22:50:16.404Z,49.00
2018-11-04T22:52:18.683Z,47.67
2018-11-04T22:54:20.933Z,50.17
2018-11-04T22:56:23.357Z,50.20
2018-11-04T22:58:25.520Z,49.37
2018-11-04T23:00:33.641Z,49.67
2018-11-04T23:02:43.257Z,48.63
2018-11-04T23:05:52.838Z,47.73
2018-11-04T23:07:55.395Z,49.20
2018-11-04T23:09:57.663Z,46.83
2018-11-04T23:11:59.872Z,46.77
2018-11-04T23:14:02.115Z,50.20
2018-11-04T23:16:04.368Z,45.23
2018-11-04T23:18:06.670Z,50.07
2018-11-04T23:20:08.929Z,47.73
2018-11-04T23:22:11.202Z,47.43
2018-11-04T23:24:13.446Z,45.87
2018-11-04T23:26:15.667Z,48.63
2018-11-04T23:28:17.929Z,45.73
2018-11-04T23:30:20.159Z,45.67
2018-11-04T23:32:22.440Z,45.20
2018-11-04T23:34:24.741Z,46.23
2018-11-04T23:36:27.013Z,46.20
2018-11-04T23:38:29.254Z,45.57
2018-11-04T23:40:31.502Z,47.50
2018-11-04T23:42:33.828Z,44.83
2018-11-04T23:44:36.090Z,45.17
2018-11-04T23:46:38.319Z,46.20
2018-11-04T23:48:40.707Z,43.43
2018-11-04T23:50:43.061Z,47.37
2018-11-04T23:52:45.615Z,46.53
2018-11-04T23:54:48.133Z,45.10
2018-11-04T23:56:50.427Z,45.30
2018-11-04T23:58:52.674Z,45.87
